sensor_id;sensor_type;location;lat;lon;timestamp;P1;durP1;ratioP1;P2;durP2;ratioP2
81934;SDS011;71405;47.674;-2.050;2024-01-15T00:02:20;22.40;;;16.05;;
81934;SDS011;71405;47.674;-2.050;2024-01-15T00:04:46;22.35;;;15.82;;
81934;SDS011;71405;47.674;-2.050;2024-01-15T00:07:11;21.40;;;15.15;;
81934;SDS011;71405;47.674;-2.050;2024-01-15T00:09:37;20.48;;;15.40;;
81934;SDS011;71405;47.674;-2.050;2024-01-15T00:12:03;20.27;;;14.73;;
81934;SDS011;71405;47.674;-2.050;2024-01-15T00:14:29;21.30;;;14.57;;
81934;SDS011;71405;47.674;-2.050;2024-01-15T00:16:55;20.58;;;14.63;;
81934;SDS011;71405;47.674;-2.050;2024-01-15T00:19:21;19.88;;;14.60;;
81934;SDS011;71405;47.674;-2.050;2024-01-15T00:21:47;20.85;;;14.32;;
81934;SDS011;71405;47.674;-2.050;2024-01-15T00:24:13;19.67;;;14.20;;
81934;SDS011;71405;47.674;-2.050;2024-01-15T00:26:39;19.73;;;14.13;;
81934;SDS011;71405;47.674;-2.050;2024-01-15T00:29:08;19.35;;;13.48;;
81934;SDS011;71405;47.674;-2.050;2024-01-15T00:31:34;19.83;;;12.85;;
81934;SDS011;71405;47.674;-2.050;2024-01-15T00:34:00;17.77;;;12.25;;
81934;SDS011;71405;47.674;-2.050;2024-01-15T00:36:26;17.98;;;12.57;;
81934;SDS011;71405;47.674;-2.050;2024-01-15T00:38:51;18.50;;;13.10;;
81934;SDS011;71405;47.674;-2.050;2024-01-15T00:41:18;18.10;;;13.63;;
81934;SDS011;71405;47.674;-2.050;2024-01-15T00:43:44;18.67;;;13.30;;
81934;SDS011;71405;47.674;-2.050;2024-01-15T00:46:10;17.30;;;12.25;;
81934;SDS011;71405;47.674;-2.050;2024-01-15T00:48:36;18.33;;;12.63;;
81934;SDS011;71405;47.674;-2.050;2024-01-15T00:51:04;16.95;;;12.40;;
81934;SDS011;71405;47.674;-2.050;2024-01-15T00:53:29;16.85;;;11.60;;
81934;SDS011;71405;47.674;-2.050;2024-01-15T00:55:56;16.85;;;13.20;;
81934;SDS011;71405;47.674;-2.050;2024-01-15T00:58:21;18.48;;;12.60;;
81934;SDS011;71405;47.674;-2.050;2024-01-15T01:00:47;16.45;;;11.68;;
81934;SDS011;71405;47.674;-2.050;2024-01-15T01:03:13;16.50;;;12.13;;
81934;SDS011;71405;47.674;-2.050;2024-01-15T01:05:38;15.50;;;11.30;;
81934;SDS011;71405;47.674;-2.050;2024-01-15T01:08:04;16.95;;;12.35;;
81934;SDS011;71405;47.674;-2.050;2024-01-15T01:10:30;16.75;;;11.68;;
81934;SDS011;71405;47.674;-2.050;2024-01-15T01:12:56;15.45;;;10.70;;
81934;SDS011;71405;47.674;-2.050;2024-01-15T01:15:22;15.80;;;10.32;;
81934;SDS011;71405;47.674;-2.050;2024-01-15T01:17:47;15.45;;;10.57;;
81934;SDS011;71405;47.674;-2.050;2024-01-15T01:20:13;15.18;;;11.02;;
81934;SDS011;71405;47.674;-2.050;2024-01-15T01:22:40;14.55;;;10.15;;
81934;SDS011;71405;47.674;-2.050;2024-01-15T01:25:06;15.48;;;10.52;;
81934;SDS011;71405;47.674;-2.050;2024-01-15T01:27:32;15.40;;;10.70;;
81934;SDS011;71405;47.674;-2.050;2024-01-15T01:29:58;17.00;;;11.35;;
81934;SDS011;71405;47.674;-2.050;2024-01-15T01:32:24;14.10;;;10.18;;
81934;SDS011;71405;47.674;-2.050;2024-01-15T01:34:49;14.95;;;10.07;;
81934;SDS011;71405;47.674;-2.050;2024-01-15T01:37:15;15.65;;;10.27;;
81934;SDS011;71405;47.674;-2.050;2024-01-15T01:39:41;13.45;;;9.38;;
81934;SDS011;71405;47.674;-2.050;2024-01-15T01:42:07;14.27;;;9.50;;
81934;SDS011;71405;47.674;-2.050;2024-01-15T01:44:33;13.02;;;8.95;;
81934;SDS011;71405;47.674;-2.050;2024-01-15T01:46:59;14.55;;;8.98;;
81934;SDS011;71405;47.674;-2.050;2024-01-15T01:49:26;14.15;;;10.20;;
81934;SDS011;71405;47.674;-2.050;2024-01-15T01:51:52;13.15;;;8.75;;
81934;SDS011;71405;47.674;-2.050;2024-01-15T01:54:21;14.20;;;9.15;;
81934;SDS011;71405;47.674;-2.050;2024-01-15T01:56:47;12.50;;;8.43;;
81934;SDS011;71405;47.674;-2.050;2024-01-15T01:59:14;12.45;;;8.40;;
81934;SDS011;71405;47.674;-2.050;2024-01-15T02:01:40;13.02;;;8.57;;
81934;SDS011;71405;47.674;-2.050;2024-01-15T02:04:06;13.57;;;8.80;;
81934;SDS011;71405;47.674;-2.050;2024-01-15T02:06:33;12.80;;;8.60;;
81934;SDS011;71405;47.674;-2.050;2024-01-15T02:08:59;13.95;;;8.45;;
81934;SDS011;71405;47.674;-2.050;2024-01-15T02:11:25;14.07;;;9.13;;
81934;SDS011;71405;47.674;-2.050;2024-01-15T02:13:51;12.38;;;8.40;;
81934;SDS011;71405;47.674;-2.050;2024-01-15T02:16:17;13.25;;;8.45;;
81934;SDS011;71405;47.674;-2.050;2024-01-15T02:18:43;11.98;;;8.32;;
81934;SDS011;71405;47.674;-2.050;2024-01-15T02:21:10;12.40;;;7.88;;
81934;SDS011;71405;47.674;-2.050;2024-01-15T02:23:37;12.27;;;7.85;;
81934;SDS011;71405;47.674;-2.050;2024-01-15T02:26:03;11.57;;;7.65;;
81934;SDS011;71405;47.674;-2.050;2024-01-15T02:28:30;12.15;;;7.15;;
81934;SDS011;71405;47.674;-2.050;2024-01-15T02:30:57;12.57;;;7.30;;
81934;SDS011;71405;47.674;-2.050;2024-01-15T02:33:23;12.60;;;7.93;;
81934;SDS011;71405;47.674;-2.050;2024-01-15T02:35:49;11.25;;;6.97;;
81934;SDS011;71405;47.674;-2.050;2024-01-15T02:38:17;12.50;;;7.63;;
81934;SDS011;71405;47.674;-2.050;2024-01-15T02:40:44;11.02;;;6.80;;
81934;SDS011;71405;47.674;-2.050;2024-01-15T02:43:10;12.38;;;7.50;;
81934;SDS011;71405;47.674;-2.050;2024-01-15T02:45:36;10.70;;;7.20;;
81934;SDS011;71405;47.674;-2.050;2024-01-15T02:48:01;11.38;;;7.05;;
81934;SDS011;71405;47.674;-2.050;2024-01-15T02:50:27;11.10;;;6.50;;
81934;SDS011;71405;47.674;-2.050;2024-01-15T02:52:53;10.80;;;6.82;;
81934;SDS011;71405;47.674;-2.050;2024-01-15T02:55:19;11.75;;;6.90;;
81934;SDS011;71405;47.674;-2.050;2024-01-15T02:57:44;11.63;;;6.82;;
81934;SDS011;71405;47.674;-2.050;2024-01-15T03:00:10;11.27;;;6.60;;
81934;SDS011;71405;47.674;-2.050;2024-01-15T03:02:37;11.80;;;7.22;;
81934;SDS011;71405;47.674;-2.050;2024-01-15T03:05:05;11.48;;;6.75;;
81934;SDS011;71405;47.674;-2.050;2024-01-15T03:07:31;10.35;;;6.47;;
81934;SDS011;71405;47.674;-2.050;2024-01-15T03:09:57;11.82;;;6.85;;
81934;SDS011;71405;47.674;-2.050;2024-01-15T03:12:23;10.82;;;6.57;;
81934;SDS011;71405;47.674;-2.050;2024-01-15T03:14:48;10.45;;;6.60;;
81934;SDS011;71405;47.674;-2.050;2024-01-15T03:17:14;9.82;;;6.00;;
81934;SDS011;71405;47.674;-2.050;2024-01-15T03:19:39;10.05;;;5.75;;
81934;SDS011;71405;47.674;-2.050;2024-01-15T03:22:05;9.95;;;6.55;;
81934;SDS011;71405;47.674;-2.050;2024-01-15T03:24:33;10.15;;;6.30;;
81934;SDS011;71405;47.674;-2.050;2024-01-15T03:26:59;9.95;;;6.05;;
81934;SDS011;71405;47.674;-2.050;2024-01-15T03:29:25;10.48;;;5.97;;
81934;SDS011;71405;47.674;-2.050;2024-01-15T03:31:51;10.63;;;5.95;;
81934;SDS011;71405;47.674;-2.050;2024-01-15T03:34:17;9.80;;;5.78;;
81934;SDS011;71405;47.674;-2.050;2024-01-15T03:36:42;9.38;;;5.65;;
81934;SDS011;71405;47.674;-2.050;2024-01-15T03:39:08;10.07;;;6.32;;
81934;SDS011;71405;47.674;-2.050;2024-01-15T03:41:34;11.45;;;6.05;;
81934;SDS011;71405;47.674;-2.050;2024-01-15T03:43:59;9.55;;;5.68;;
81934;SDS011;71405;47.674;-2.050;2024-01-15T03:46:26;9.10;;;5.10;;
81934;SDS011;71405;47.674;-2.050;2024-01-15T03:48:52;10.35;;;5.75;;
81934;SDS011;71405;47.674;-2.050;2024-01-15T03:51:18;10.02;;;5.30;;
81934;SDS011;71405;47.674;-2.050;2024-01-15T03:53:43;10.27;;;5.82;;
81934;SDS011;71405;47.674;-2.050;2024-01-15T03:56:09;10.23;;;5.65;;
81934;SDS011;71405;47.674;-2.050;2024-01-15T03:58:35;10.32;;;6.15;;
81934;SDS011;71405;47.674;-2.050;2024-01-15T04:01:01;8.77;;;5.05;;
81934;SDS011;71405;47.674;-2.050;2024-01-15T04:03:27;9.50;;;5.15;;
81934;SDS011;71405;47.674;-2.050;2024-01-15T04:05:52;8.98;;;5.35;;
81934;SDS011;71405;47.674;-2.050;2024-01-15T04:08:18;8.85;;;4.93;;
81934;SDS011;71405;47.674;-2.050;2024-01-15T04:10:44;9.40;;;5.40;;
81934;SDS011;71405;47.674;-2.050;2024-01-15T04:13:09;8.57;;;4.78;;
81934;SDS011;71405;47.674;-2.050;2024-01-15T04:15:35;8.82;;;4.80;;
81934;SDS011;71405;47.674;-2.050;2024-01-15T04:18:02;8.50;;;4.82;;
81934;SDS011;71405;47.674;-2.050;2024-01-15T04:20:28;8.80;;;5.07;;
81934;SDS011;71405;47.674;-2.050;2024-01-15T04:22:53;8.93;;;4.80;;
81934;SDS011;71405;47.674;-2.050;2024-01-15T04:25:19;8.73;;;4.70;;
81934;SDS011;71405;47.674;-2.050;2024-01-15T04:27:45;8.95;;;4.70;;
81934;SDS011;71405;47.674;-2.050;2024-01-15T04:30:11;8.80;;;4.88;;
81934;SDS011;71405;47.674;-2.050;2024-01-15T04:32:37;8.75;;;4.68;;
81934;SDS011;71405;47.674;-2.050;2024-01-15T04:35:02;8.45;;;4.57;;
81934;SDS011;71405;47.674;-2.050;2024-01-15T04:37:28;8.48;;;5.10;;
81934;SDS011;71405;47.674;-2.050;2024-01-15T04:39:54;8.60;;;4.90;;
81934;SDS011;71405;47.674;-2.050;2024-01-15T04:42:23;8.88;;;4.72;;
81934;SDS011;71405;47.674;-2.050;2024-01-15T04:44:49;8.80;;;5.10;;
81934;SDS011;71405;47.674;-2.050;2024-01-15T04:47:14;9.10;;;5.10;;
81934;SDS011;71405;47.674;-2.050;2024-01-15T04:49:40;7.65;;;4.72;;
81934;SDS011;71405;47.674;-2.050;2024-01-15T04:52:06;8.05;;;4.50;;
81934;SDS011;71405;47.674;-2.050;2024-01-15T04:54:31;8.50;;;4.43;;
81934;SDS011;71405;47.674;-2.050;2024-01-15T04:56:57;8.35;;;4.57;;
81934;SDS011;71405;47.674;-2.050;2024-01-15T04:59:23;8.38;;;4.63;;
81934;SDS011;71405;47.674;-2.050;2024-01-15T05:01:48;8.30;;;4.20;;
81934;SDS011;71405;47.674;-2.050;2024-01-15T05:04:14;10.15;;;5.18;;
81934;SDS011;71405;47.674;-2.050;2024-01-15T05:06:40;8.30;;;4.75;;
81934;SDS011;71405;47.674;-2.050;2024-01-15T05:09:06;8.27;;;4.32;;
81934;SDS011;71405;47.674;-2.050;2024-01-15T05:11:32;8.40;;;4.40;;
81934;SDS011;71405;47.674;-2.050;2024-01-15T05:13:57;7.88;;;4.55;;
81934;SDS011;71405;47.674;-2.050;2024-01-15T05:16:23;7.70;;;3.97;;
81934;SDS011;71405;47.674;-2.050;2024-01-15T05:18:49;7.32;;;4.10;;
81934;SDS011;71405;47.674;-2.050;2024-01-15T05:21:14;8.30;;;3.80;;
81934;SDS011;71405;47.674;-2.050;2024-01-15T05:23:40;8.23;;;4.35;;
81934;SDS011;71405;47.674;-2.050;2024-01-15T05:26:06;7.50;;;4.18;;
81934;SDS011;71405;47.674;-2.050;2024-01-15T05:28:33;8.32;;;4.38;;
81934;SDS011;71405;47.674;-2.050;2024-01-15T05:30:59;7.38;;;4.28;;
81934;SDS011;71405;47.674;-2.050;2024-01-15T05:33:25;7.38;;;4.03;;
81934;SDS011;71405;47.674;-2.050;2024-01-15T05:35:51;7.70;;;4.15;;
81934;SDS011;71405;47.674;-2.050;2024-01-15T05:38:17;8.57;;;4.38;;
81934;SDS011;71405;47.674;-2.050;2024-01-15T05:40:42;6.78;;;3.90;;
81934;SDS011;71405;47.674;-2.050;2024-01-15T05:43:08;7.75;;;4.10;;
81934;SDS011;71405;47.674;-2.050;2024-01-15T05:45:34;7.72;;;3.75;;
81934;SDS011;71405;47.674;-2.050;2024-01-15T05:48:03;7.80;;;3.97;;
81934;SDS011;71405;47.674;-2.050;2024-01-15T05:50:29;7.10;;;4.00;;
81934;SDS011;71405;47.674;-2.050;2024-01-15T05:52:54;7.97;;;3.85;;
81934;SDS011;71405;47.674;-2.050;2024-01-15T05:55:20;8.90;;;4.07;;
81934;SDS011;71405;47.674;-2.050;2024-01-15T05:57:46;8.23;;;3.83;;
81934;SDS011;71405;47.674;-2.050;2024-01-15T06:00:11;8.20;;;4.00;;
81934;SDS011;71405;47.674;-2.050;2024-01-15T06:02:38;8.00;;;4.00;;
81934;SDS011;71405;47.674;-2.050;2024-01-15T06:05:04;7.78;;;4.25;;
81934;SDS011;71405;47.674;-2.050;2024-01-15T06:07:31;7.45;;;4.22;;
81934;SDS011;71405;47.674;-2.050;2024-01-15T06:09:57;7.90;;;4.45;;
81934;SDS011;71405;47.674;-2.050;2024-01-15T06:12:22;7.63;;;4.25;;
81934;SDS011;71405;47.674;-2.050;2024-01-15T06:14:48;7.32;;;3.85;;
81934;SDS011;71405;47.674;-2.050;2024-01-15T06:17:14;7.68;;;3.92;;
81934;SDS011;71405;47.674;-2.050;2024-01-15T06:19:40;6.68;;;3.78;;
81934;SDS011;71405;47.674;-2.050;2024-01-15T06:22:05;8.18;;;4.38;;
81934;SDS011;71405;47.674;-2.050;2024-01-15T06:24:31;8.43;;;4.30;;
81934;SDS011;71405;47.674;-2.050;2024-01-15T06:26:57;7.15;;;4.00;;
81934;SDS011;71405;47.674;-2.050;2024-01-15T06:29:25;6.90;;;4.05;;
81934;SDS011;71405;47.674;-2.050;2024-01-15T06:31:52;7.15;;;4.03;;
81934;SDS011;71405;47.674;-2.050;2024-01-15T06:34:17;8.60;;;4.30;;
81934;SDS011;71405;47.674;-2.050;2024-01-15T06:36:43;9.52;;;4.07;;
81934;SDS011;71405;47.674;-2.050;2024-01-15T06:39:09;9.15;;;4.95;;
81934;SDS011;71405;47.674;-2.050;2024-01-15T06:41:35;10.30;;;4.70;;
81934;SDS011;71405;47.674;-2.050;2024-01-15T06:44:08;15.35;;;7.20;;
81934;SDS011;71405;47.674;-2.050;2024-01-15T06:46:38;12.32;;;5.30;;
81934;SDS011;71405;47.674;-2.050;2024-01-15T06:49:07;7.83;;;3.90;;
81934;SDS011;71405;47.674;-2.050;2024-01-15T06:51:33;8.77;;;4.68;;
81934;SDS011;71405;47.674;-2.050;2024-01-15T06:53:58;13.55;;;6.68;;
81934;SDS011;71405;47.674;-2.050;2024-01-15T06:56:24;13.95;;;6.43;;
81934;SDS011;71405;47.674;-2.050;2024-01-15T06:58:51;12.65;;;6.40;;
81934;SDS011;71405;47.674;-2.050;2024-01-15T07:01:16;12.07;;;5.63;;
81934;SDS011;71405;47.674;-2.050;2024-01-15T07:03:42;14.73;;;6.18;;
81934;SDS011;71405;47.674;-2.050;2024-01-15T07:06:08;8.20;;;4.40;;
81934;SDS011;71405;47.674;-2.050;2024-01-15T07:08:33;10.13;;;4.55;;
81934;SDS011;71405;47.674;-2.050;2024-01-15T07:10:59;8.90;;;5.07;;
81934;SDS011;71405;47.674;-2.050;2024-01-15T07:13:28;8.77;;;4.57;;
81934;SDS011;71405;47.674;-2.050;2024-01-15T07:15:53;7.80;;;4.05;;
81934;SDS011;71405;47.674;-2.050;2024-01-15T07:18:19;9.05;;;4.70;;
81934;SDS011;71405;47.674;-2.050;2024-01-15T07:20:45;7.57;;;4.18;;
81934;SDS011;71405;47.674;-2.050;2024-01-15T07:23:10;16.90;;;6.55;;
81934;SDS011;71405;47.674;-2.050;2024-01-15T07:25:37;23.27;;;8.18;;
81934;SDS011;71405;47.674;-2.050;2024-01-15T07:28:02;27.40;;;9.68;;
81934;SDS011;71405;47.674;-2.050;2024-01-15T07:30:29;26.63;;;9.70;;
81934;SDS011;71405;47.674;-2.050;2024-01-15T07:32:54;30.95;;;10.25;;
81934;SDS011;71405;47.674;-2.050;2024-01-15T07:35:20;29.60;;;9.82;;
81934;SDS011;71405;47.674;-2.050;2024-01-15T07:37:46;30.52;;;9.60;;
81934;SDS011;71405;47.674;-2.050;2024-01-15T07:40:12;23.08;;;9.48;;
81934;SDS011;71405;47.674;-2.050;2024-01-15T07:42:37;28.25;;;9.75;;
81934;SDS011;71405;47.674;-2.050;2024-01-15T07:45:03;24.63;;;8.75;;
81934;SDS011;71405;47.674;-2.050;2024-01-15T07:47:30;23.02;;;8.65;;
81934;SDS011;71405;47.674;-2.050;2024-01-15T07:49:55;21.27;;;8.00;;
81934;SDS011;71405;47.674;-2.050;2024-01-15T07:52:21;19.20;;;8.70;;
81934;SDS011;71405;47.674;-2.050;2024-01-15T07:54:47;19.48;;;7.88;;
81934;SDS011;71405;47.674;-2.050;2024-01-15T07:57:12;19.50;;;7.28;;
81934;SDS011;71405;47.674;-2.050;2024-01-15T07:59:38;19.17;;;7.25;;
81934;SDS011;71405;47.674;-2.050;2024-01-15T08:02:05;19.58;;;7.43;;
81934;SDS011;71405;47.674;-2.050;2024-01-15T08:04:30;16.13;;;7.45;;
81934;SDS011;71405;47.674;-2.050;2024-01-15T08:06:56;19.48;;;7.85;;
81934;SDS011;71405;47.674;-2.050;2024-01-15T08:09:22;23.40;;;7.68;;
81934;SDS011;71405;47.674;-2.050;2024-01-15T08:11:48;19.70;;;7.20;;
81934;SDS011;71405;47.674;-2.050;2024-01-15T08:14:17;15.77;;;6.85;;
81934;SDS011;71405;47.674;-2.050;2024-01-15T08:16:43;19.30;;;6.95;;
81934;SDS011;71405;47.674;-2.050;2024-01-15T08:19:08;14.85;;;5.93;;
81934;SDS011;71405;47.674;-2.050;2024-01-15T08:21:34;16.77;;;6.90;;
81934;SDS011;71405;47.674;-2.050;2024-01-15T08:24:00;14.82;;;6.50;;
81934;SDS011;71405;47.674;-2.050;2024-01-15T08:26:27;13.70;;;6.10;;
81934;SDS011;71405;47.674;-2.050;2024-01-15T08:28:53;18.83;;;6.28;;
81934;SDS011;71405;47.674;-2.050;2024-01-15T08:31:19;12.30;;;5.88;;
81934;SDS011;71405;47.674;-2.050;2024-01-15T08:33:44;13.15;;;6.05;;
81934;SDS011;71405;47.674;-2.050;2024-01-15T08:36:10;15.07;;;6.10;;
81934;SDS011;71405;47.674;-2.050;2024-01-15T08:38:36;13.90;;;6.18;;
81934;SDS011;71405;47.674;-2.050;2024-01-15T08:41:02;14.20;;;5.95;;
81934;SDS011;71405;47.674;-2.050;2024-01-15T08:43:28;12.23;;;5.90;;
81934;SDS011;71405;47.674;-2.050;2024-01-15T08:45:56;10.00;;;5.30;;
81934;SDS011;71405;47.674;-2.050;2024-01-15T08:48:22;11.73;;;5.47;;
81934;SDS011;71405;47.674;-2.050;2024-01-15T08:50:48;12.32;;;5.40;;
81934;SDS011;71405;47.674;-2.050;2024-01-15T08:53:14;12.25;;;5.88;;
81934;SDS011;71405;47.674;-2.050;2024-01-15T08:55:40;11.75;;;5.40;;
81934;SDS011;71405;47.674;-2.050;2024-01-15T08:58:07;11.10;;;5.68;;
81934;SDS011;71405;47.674;-2.050;2024-01-15T09:00:33;10.70;;;5.05;;
81934;SDS011;71405;47.674;-2.050;2024-01-15T09:02:59;12.75;;;5.55;;
81934;SDS011;71405;47.674;-2.050;2024-01-15T09:05:25;12.13;;;5.68;;
81934;SDS011;71405;47.674;-2.050;2024-01-15T09:07:50;11.50;;;5.13;;
81934;SDS011;71405;47.674;-2.050;2024-01-15T09:10:17;11.63;;;4.95;;
81934;SDS011;71405;47.674;-2.050;2024-01-15T09:12:43;11.52;;;5.50;;
81934;SDS011;71405;47.674;-2.050;2024-01-15T09:15:09;9.93;;;4.57;;
81934;SDS011;71405;47.674;-2.050;2024-01-15T09:17:34;9.90;;;5.03;;
81934;SDS011;71405;47.674;-2.050;2024-01-15T09:20:00;11.70;;;5.22;;
81934;SDS011;71405;47.674;-2.050;2024-01-15T09:22:26;12.05;;;5.03;;
81934;SDS011;71405;47.674;-2.050;2024-01-15T09:24:52;12.13;;;4.53;;
81934;SDS011;71405;47.674;-2.050;2024-01-15T09:27:17;9.73;;;4.95;;
81934;SDS011;71405;47.674;-2.050;2024-01-15T09:29:43;9.05;;;4.85;;
81934;SDS011;71405;47.674;-2.050;2024-01-15T09:32:11;11.32;;;4.75;;
81934;SDS011;71405;47.674;-2.050;2024-01-15T09:34:37;13.38;;;4.93;;
81934;SDS011;71405;47.674;-2.050;2024-01-15T09:37:03;9.57;;;4.72;;
81934;SDS011;71405;47.674;-2.050;2024-01-15T09:39:29;11.18;;;4.88;;
81934;SDS011;71405;47.674;-2.050;2024-01-15T09:41:56;9.52;;;4.75;;
81934;SDS011;71405;47.674;-2.050;2024-01-15T09:44:22;10.32;;;4.90;;
81934;SDS011;71405;47.674;-2.050;2024-01-15T09:46:49;9.38;;;4.30;;
81934;SDS011;71405;47.674;-2.050;2024-01-15T09:49:18;10.52;;;4.70;;
81934;SDS011;71405;47.674;-2.050;2024-01-15T09:51:44;8.10;;;4.43;;
81934;SDS011;71405;47.674;-2.050;2024-01-15T09:54:10;9.82;;;4.68;;
81934;SDS011;71405;47.674;-2.050;2024-01-15T09:56:38;9.35;;;4.07;;
81934;SDS011;71405;47.674;-2.050;2024-01-15T09:59:04;9.63;;;4.60;;
81934;SDS011;71405;47.674;-2.050;2024-01-15T10:01:31;9.32;;;4.30;;
81934;SDS011;71405;47.674;-2.050;2024-01-15T10:03:57;8.75;;;4.50;;
81934;SDS011;71405;47.674;-2.050;2024-01-15T10:06:27;9.55;;;4.40;;
81934;SDS011;71405;47.674;-2.050;2024-01-15T10:08:53;9.25;;;4.47;;
81934;SDS011;71405;47.674;-2.050;2024-01-15T10:11:21;9.35;;;4.30;;
81934;SDS011;71405;47.674;-2.050;2024-01-15T10:13:47;8.48;;;4.10;;
81934;SDS011;71405;47.674;-2.050;2024-01-15T10:16:18;7.72;;;4.20;;
81934;SDS011;71405;47.674;-2.050;2024-01-15T10:18:44;8.10;;;3.92;;
81934;SDS011;71405;47.674;-2.050;2024-01-15T10:21:09;8.95;;;3.90;;
81934;SDS011;71405;47.674;-2.050;2024-01-15T10:23:35;8.82;;;4.47;;
81934;SDS011;71405;47.674;-2.050;2024-01-15T10:26:01;8.23;;;3.92;;
81934;SDS011;71405;47.674;-2.050;2024-01-15T10:28:27;9.00;;;4.10;;
81934;SDS011;71405;47.674;-2.050;2024-01-15T10:30:56;8.65;;;4.03;;
81934;SDS011;71405;47.674;-2.050;2024-01-15T10:33:24;8.93;;;4.40;;
81934;SDS011;71405;47.674;-2.050;2024-01-15T10:35:56;8.75;;;4.28;;
81934;SDS011;71405;47.674;-2.050;2024-01-15T10:38:23;8.63;;;3.83;;
81934;SDS011;71405;47.674;-2.050;2024-01-15T10:40:53;8.70;;;3.90;;
81934;SDS011;71405;47.674;-2.050;2024-01-15T10:43:19;7.50;;;3.75;;
81934;SDS011;71405;47.674;-2.050;2024-01-15T10:45:46;7.70;;;3.95;;
81934;SDS011;71405;47.674;-2.050;2024-01-15T10:48:16;8.50;;;4.05;;
81934;SDS011;71405;47.674;-2.050;2024-01-15T10:50:43;8.85;;;4.32;;
81934;SDS011;71405;47.674;-2.050;2024-01-15T10:53:09;8.95;;;4.05;;
81934;SDS011;71405;47.674;-2.050;2024-01-15T10:55:41;10.52;;;4.57;;
81934;SDS011;71405;47.674;-2.050;2024-01-15T10:58:07;7.45;;;3.88;;
81934;SDS011;71405;47.674;-2.050;2024-01-15T11:00:35;7.75;;;3.70;;
81934;SDS011;71405;47.674;-2.050;2024-01-15T11:03:02;8.00;;;3.67;;
81934;SDS011;71405;47.674;-2.050;2024-01-15T11:05:34;7.95;;;3.60;;
81934;SDS011;71405;47.674;-2.050;2024-01-15T11:08:04;9.30;;;4.40;;
81934;SDS011;71405;47.674;-2.050;2024-01-15T11:10:42;10.07;;;4.40;;
81934;SDS011;71405;47.674;-2.050;2024-01-15T11:18:33;12.02;;;4.72;;
81934;SDS011;71405;47.674;-2.050;2024-01-15T11:23:42;19.63;;;5.70;;
81934;SDS011;71405;47.674;-2.050;2024-01-15T11:26:27;12.43;;;5.22;;
81934;SDS011;71405;47.674;-2.050;2024-01-15T11:28:53;18.50;;;5.95;;
81934;SDS011;71405;47.674;-2.050;2024-01-15T11:31:19;20.30;;;7.05;;
81934;SDS011;71405;47.674;-2.050;2024-01-15T11:33:51;14.45;;;5.65;;
81934;SDS011;71405;47.674;-2.050;2024-01-15T11:36:17;16.75;;;6.43;;
81934;SDS011;71405;47.674;-2.050;2024-01-15T11:38:43;13.23;;;5.65;;
81934;SDS011;71405;47.674;-2.050;2024-01-15T11:41:14;18.75;;;6.47;;
81934;SDS011;71405;47.674;-2.050;2024-01-15T11:43:41;17.30;;;6.70;;
81934;SDS011;71405;47.674;-2.050;2024-01-15T11:46:11;18.45;;;5.97;;
81934;SDS011;71405;47.674;-2.050;2024-01-15T11:48:43;16.27;;;6.25;;
81934;SDS011;71405;47.674;-2.050;2024-01-15T11:51:12;17.58;;;6.75;;
81934;SDS011;71405;47.674;-2.050;2024-01-15T11:53:47;15.65;;;6.43;;
81934;SDS011;71405;47.674;-2.050;2024-01-15T11:56:17;16.50;;;6.15;;
81934;SDS011;71405;47.674;-2.050;2024-01-15T11:58:47;16.88;;;5.82;;
81934;SDS011;71405;47.674;-2.050;2024-01-15T12:01:12;14.45;;;5.68;;
81934;SDS011;71405;47.674;-2.050;2024-01-15T12:03:38;14.05;;;6.15;;
81934;SDS011;71405;47.674;-2.050;2024-01-15T12:06:07;16.02;;;6.03;;
81934;SDS011;71405;47.674;-2.050;2024-01-15T12:08:35;13.35;;;5.07;;
81934;SDS011;71405;47.674;-2.050;2024-01-15T12:11:01;9.77;;;4.47;;
81934;SDS011;71405;47.674;-2.050;2024-01-15T12:13:36;14.52;;;6.20;;
81934;SDS011;71405;47.674;-2.050;2024-01-15T12:16:01;25.40;;;6.00;;
81934;SDS011;71405;47.674;-2.050;2024-01-15T12:18:29;15.68;;;6.38;;
81934;SDS011;71405;47.674;-2.050;2024-01-15T12:20:54;16.92;;;5.78;;
81934;SDS011;71405;47.674;-2.050;2024-01-15T12:23:20;16.25;;;6.43;;
81934;SDS011;71405;47.674;-2.050;2024-01-15T12:25:46;14.13;;;5.65;;
81934;SDS011;71405;47.674;-2.050;2024-01-15T12:28:12;15.70;;;5.60;;
81934;SDS011;71405;47.674;-2.050;2024-01-15T12:30:38;12.98;;;5.78;;
81934;SDS011;71405;47.674;-2.050;2024-01-15T12:33:04;12.43;;;4.90;;
81934;SDS011;71405;47.674;-2.050;2024-01-15T12:35:30;9.93;;;4.60;;
81934;SDS011;71405;47.674;-2.050;2024-01-15T12:37:56;10.82;;;5.28;;
81934;SDS011;71405;47.674;-2.050;2024-01-15T12:40:23;11.98;;;5.25;;
81934;SDS011;71405;47.674;-2.050;2024-01-15T12:42:49;10.45;;;4.30;;
81934;SDS011;71405;47.674;-2.050;2024-01-15T12:45:15;13.07;;;5.13;;
81934;SDS011;71405;47.674;-2.050;2024-01-15T12:47:41;11.20;;;4.32;;
81934;SDS011;71405;47.674;-2.050;2024-01-15T12:50:10;12.10;;;4.43;;
81934;SDS011;71405;47.674;-2.050;2024-01-15T12:52:37;10.75;;;4.55;;
81934;SDS011;71405;47.674;-2.050;2024-01-15T12:55:05;13.15;;;4.90;;
81934;SDS011;71405;47.674;-2.050;2024-01-15T12:57:32;11.27;;;5.00;;
81934;SDS011;71405;47.674;-2.050;2024-01-15T12:59:57;11.13;;;4.40;;
81934;SDS011;71405;47.674;-2.050;2024-01-15T13:02:23;10.60;;;4.32;;
81934;SDS011;71405;47.674;-2.050;2024-01-15T13:04:49;11.68;;;4.45;;
81934;SDS011;71405;47.674;-2.050;2024-01-15T13:07:15;10.07;;;4.22;;
81934;SDS011;71405;47.674;-2.050;2024-01-15T13:09:40;10.68;;;4.28;;
81934;SDS011;71405;47.674;-2.050;2024-01-15T13:12:06;9.13;;;3.60;;
81934;SDS011;71405;47.674;-2.050;2024-01-15T13:14:32;11.32;;;4.03;;
81934;SDS011;71405;47.674;-2.050;2024-01-15T13:16:58;9.52;;;4.28;;
81934;SDS011;71405;47.674;-2.050;2024-01-15T13:19:24;11.20;;;4.63;;
81934;SDS011;71405;47.674;-2.050;2024-01-15T13:21:50;10.80;;;4.13;;
81934;SDS011;71405;47.674;-2.050;2024-01-15T13:24:16;9.63;;;3.63;;
81934;SDS011;71405;47.674;-2.050;2024-01-15T13:26:42;9.07;;;3.45;;
81934;SDS011;71405;47.674;-2.050;2024-01-15T13:29:08;8.00;;;3.50;;
81934;SDS011;71405;47.674;-2.050;2024-01-15T13:31:34;10.32;;;3.90;;
81934;SDS011;71405;47.674;-2.050;2024-01-15T13:34:00;9.10;;;3.80;;
81934;SDS011;71405;47.674;-2.050;2024-01-15T13:36:26;9.50;;;3.70;;
81934;SDS011;71405;47.674;-2.050;2024-01-15T13:38:52;8.25;;;3.08;;
81934;SDS011;71405;47.674;-2.050;2024-01-15T13:41:19;8.32;;;3.63;;
81934;SDS011;71405;47.674;-2.050;2024-01-15T13:43:49;8.13;;;3.50;;
81934;SDS011;71405;47.674;-2.050;2024-01-15T13:46:15;7.85;;;3.65;;
81934;SDS011;71405;47.674;-2.050;2024-01-15T13:48:42;10.75;;;3.55;;
81934;SDS011;71405;47.674;-2.050;2024-01-15T13:51:08;9.70;;;3.72;;
81934;SDS011;71405;47.674;-2.050;2024-01-15T13:53:34;9.88;;;3.75;;
81934;SDS011;71405;47.674;-2.050;2024-01-15T13:55:59;7.75;;;3.38;;
81934;SDS011;71405;47.674;-2.050;2024-01-15T13:58:25;8.90;;;3.80;;
81934;SDS011;71405;47.674;-2.050;2024-01-15T14:00:51;9.07;;;3.22;;
81934;SDS011;71405;47.674;-2.050;2024-01-15T14:03:17;10.00;;;3.63;;
81934;SDS011;71405;47.674;-2.050;2024-01-15T14:05:44;8.15;;;3.60;;
81934;SDS011;71405;47.674;-2.050;2024-01-15T14:08:10;10.73;;;3.17;;
81934;SDS011;71405;47.674;-2.050;2024-01-15T14:10:35;8.52;;;3.28;;
81934;SDS011;71405;47.674;-2.050;2024-01-15T14:13:02;10.27;;;3.53;;
81934;SDS011;71405;47.674;-2.050;2024-01-15T14:15:28;12.63;;;4.22;;
81934;SDS011;71405;47.674;-2.050;2024-01-15T14:17:54;12.18;;;4.78;;
81934;SDS011;71405;47.674;-2.050;2024-01-15T14:20:20;13.85;;;4.65;;
81934;SDS011;71405;47.674;-2.050;2024-01-15T14:22:45;11.60;;;3.80;;
81934;SDS011;71405;47.674;-2.050;2024-01-15T14:25:13;10.10;;;3.70;;
81934;SDS011;71405;47.674;-2.050;2024-01-15T14:27:38;11.05;;;4.05;;
81934;SDS011;71405;47.674;-2.050;2024-01-15T14:30:04;12.05;;;4.15;;